createdAt,value
2022-08-03T00:02:28.014Z,18.71
2022-08-03T00:05:29.594Z,18.70
2022-08-03T00:08:31.260Z,18.76
2022-08-03T00:11:34.086Z,18.96
2022-08-03T00:14:35.766Z,19.08
2022-08-03T00:17:53.645Z,18.49
2022-08-03T00:20:55.792Z,18.85
2022-08-03T00:23:58.594Z,18.66
2022-08-03T00:27:00.119Z,18.45
2022-08-03T00:30:01.635Z,18.75
2022-08-03T00:33:03.812Z,18.83
2022-08-03T00:36:05.593Z,18.39
2022-08-03T00:39:07.146Z,18.19
2022-08-03T00:42:09.557Z,18.64
2022-08-03T00:45:11.167Z,18.76
2022-08-03T00:48:19.545Z,18.87
2022-08-03T00:51:34.542Z,18.82
2022-08-03T00:54:38.272Z,18.87
2022-08-03T00:57:39.974Z,18.81
2022-08-03T01:00:41.872Z,18.42
2022-08-03T01:03:43.419Z,17.83
2022-08-03T01:07:11.791Z,18.32
2022-08-03T01:10:26.112Z,18.81
2022-08-03T01:13:59.934Z,18.59
2022-08-03T01:16:59.849Z,18.57
2022-08-03T01:20:10.700Z,18.59
2022-08-03T01:23:18.355Z,18.19
2022-08-03T01:26:56.071Z,17.63
2022-08-03T01:30:07.609Z,18.18
2022-08-03T01:33:18.981Z,18.36
2022-08-03T01:36:28.757Z,18.32
2022-08-03T01:39:33.134Z,18.44
2022-08-03T01:42:36.573Z,18.49
2022-08-03T01:45:39.779Z,18.23
2022-08-03T01:48:43.359Z,17.75
2022-08-03T01:51:57.907Z,17.55
2022-08-03T01:55:07.670Z,16.93
2022-08-03T01:58:11.539Z,17.64
2022-08-03T02:01:18.856Z,17.41
2022-08-03T02:04:22.577Z,17.66
2022-08-03T02:07:27.220Z,17.84
2022-08-03T02:10:34.563Z,17.54
2022-08-03T02:13:42.103Z,17.41
2022-08-03T02:16:47.289Z,17.25
2022-08-03T02:20:01.939Z,16.60
2022-08-03T02:23:08.741Z,16.72
2022-08-03T02:26:17.581Z,17.70
2022-08-03T02:29:38.854Z,18.11
2022-08-03T02:32:50.055Z,18.25
2022-08-03T02:35:59.061Z,17.95
2022-08-03T02:39:03.643Z,17.08
2022-08-03T02:42:09.468Z,16.98
2022-08-03T02:56:11.718Z,17.16
2022-08-03T03:15:00.636Z,17.83
2022-08-03T03:19:19.138Z,18.06
2022-08-03T03:22:51.285Z,18.14
2022-08-03T03:26:00.731Z,18.06
2022-08-03T03:29:30.776Z,17.63
2022-08-03T03:40:32.509Z,17.54
2022-08-03T03:48:53.911Z,16.60
2022-08-03T04:16:56.151Z,17.47
2022-08-03T04:20:15.686Z,17.41
2022-08-03T04:23:53.483Z,17.45
2022-08-03T04:27:34.313Z,17.19
2022-08-03T04:30:49.186Z,16.98
2022-08-03T04:33:53.896Z,16.52
2022-08-03T04:37:00.408Z,16.36
2022-08-03T04:40:06.366Z,16.28
2022-08-03T04:43:22.115Z,16.21
2022-08-03T04:46:50.533Z,16.26
2022-08-03T04:49:55.885Z,16.38
2022-08-03T04:52:57.537Z,15.71
2022-08-03T04:56:06.078Z,15.49
2022-08-03T04:59:08.365Z,15.59
2022-08-03T05:02:10.027Z,15.52
2022-08-03T05:05:11.973Z,15.63
2022-08-03T05:08:14.265Z,15.91
2022-08-03T05:11:16.938Z,16.05
2022-08-03T05:14:18.581Z,16.10
2022-08-03T05:17:30.095Z,16.03
2022-08-03T05:20:32.267Z,15.97
2022-08-03T05:23:33.904Z,16.01
2022-08-03T05:26:35.536Z,16.16
2022-08-03T05:29:36.994Z,16.25
2022-08-03T05:32:38.505Z,16.26
2022-08-03T05:35:57.301Z,16.33
2022-08-03T05:39:02.968Z,16.55
2022-08-03T05:42:04.777Z,16.69
2022-08-03T05:45:15.581Z,16.88
2022-08-03T05:48:17.130Z,16.99
2022-08-03T05:51:19.020Z,17.11
2022-08-03T05:54:20.527Z,17.18
2022-08-03T05:57:22.165Z,17.32
2022-08-03T06:00:24.171Z,17.51
2022-08-03T06:03:27.323Z,17.76
2022-08-03T06:06:32.153Z,18.04
2022-08-03T06:10:34.866Z,18.09
2022-08-03T06:12:55.910Z,18.23
2022-08-03T06:15:57.722Z,18.41
2022-08-03T06:18:59.272Z,18.63
2022-08-03T06:22:00.921Z,18.84
2022-08-03T06:25:07.513Z,18.99
2022-08-03T06:28:35.288Z,19.13
2022-08-03T06:31:35.406Z,19.30
2022-08-03T06:34:36.857Z,19.43
2022-08-03T06:37:51.695Z,19.56
2022-08-03T06:40:53.159Z,19.66
2022-08-03T06:44:03.014Z,19.79
2022-08-03T06:47:05.893Z,20.03
2022-08-03T06:50:16.603Z,20.19
2022-08-03T06:53:21.321Z,20.33
2022-08-03T06:56:23.125Z,20.34
2022-08-03T07:00:09.904Z,20.52
2022-08-03T07:02:46.545Z,20.67
2022-08-03T07:05:49.158Z,20.78
2022-08-03T07:08:53.642Z,20.93
2022-08-03T07:11:57.160Z,21.03
2022-08-03T07:15:01.883Z,21.25
2022-08-03T07:18:04.361Z,21.50
2022-08-03T07:21:05.862Z,21.66
2022-08-03T07:24:07.422Z,21.82
2022-08-03T07:27:09.713Z,21.89
2022-08-03T07:30:11.725Z,22.02
2022-08-03T07:33:13.344Z,22.22
2022-08-03T07:36:14.840Z,22.23
2022-08-03T07:39:18.018Z,22.24
2022-08-03T07:42:20.398Z,22.43
2022-08-03T07:45:23.373Z,22.62
2022-08-03T07:48:24.953Z,22.71
2022-08-03T07:51:26.484Z,22.89
2022-08-03T07:54:27.946Z,22.95
2022-08-03T07:57:29.864Z,22.94
2022-08-03T08:00:32.066Z,23.15
2022-08-03T08:03:52.214Z,23.38
2022-08-03T08:06:54.575Z,23.53
2022-08-03T08:09:57.361Z,23.64
2022-08-03T08:12:59.122Z,23.73
2022-08-03T08:16:01.077Z,23.82
2022-08-03T08:19:02.602Z,23.94
2022-08-03T08:22:04.349Z,24.09
2022-08-03T08:25:07.436Z,24.30
2022-08-03T08:28:29.458Z,24.28
2022-08-03T08:31:30.472Z,24.50
2022-08-03T08:34:32.416Z,24.70
2022-08-03T08:37:34.255Z,24.58
2022-08-03T08:40:35.793Z,24.75
2022-08-03T08:43:37.407Z,24.97
2022-08-03T08:46:40.406Z,24.99
2022-08-03T08:49:58.211Z,25.01
2022-08-03T08:53:07.014Z,25.22
2022-08-03T08:56:16.825Z,25.07
2022-08-03T08:59:18.774Z,25.00
2022-08-03T09:02:20.542Z,25.15
2022-08-03T09:05:35.714Z,25.29
2022-08-03T09:08:37.783Z,25.45
2022-08-03T09:12:00.405Z,25.59
2022-08-03T09:15:31.263Z,25.61
2022-08-03T09:18:33.352Z,25.82
2022-08-03T09:21:35.119Z,26.06
2022-08-03T09:24:41.540Z,26.14
2022-08-03T09:27:44.741Z,26.26
2022-08-03T09:30:59.140Z,26.21
2022-08-03T09:34:02.493Z,26.32
2022-08-03T09:37:14.790Z,26.57
2022-08-03T09:40:34.351Z,26.52
2022-08-03T09:43:46.414Z,26.31
2022-08-03T09:46:52.122Z,26.35
2022-08-03T09:50:08.842Z,26.49
2022-08-03T09:53:12.203Z,26.82
2022-08-03T09:56:34.378Z,26.99
2022-08-03T09:59:35.349Z,27.07
2022-08-03T10:02:42.556Z,27.10
2022-08-03T10:05:45.251Z,27.14
2022-08-03T10:08:47.319Z,26.93
2022-08-03T10:11:49.390Z,27.18
2022-08-03T10:14:52.302Z,27.47
2022-08-03T10:17:53.803Z,27.65
2022-08-03T10:21:03.172Z,27.46
2022-08-03T10:24:07.389Z,27.36
2022-08-03T10:27:13.392Z,27.36
2022-08-03T10:30:15.617Z,27.61
2022-08-03T10:33:51.180Z,27.45
2022-08-03T10:36:44.158Z,27.48
2022-08-03T10:39:54.528Z,27.74
2022-08-03T10:43:03.410Z,27.80
2022-08-03T10:46:08.398Z,27.95
2022-08-03T10:49:13.745Z,27.98
2022-08-03T10:52:33.723Z,28.00
2022-08-03T10:56:00.133Z,27.94
2022-08-03T10:59:03.873Z,28.31
2022-08-03T11:02:08.265Z,28.40
2022-08-03T11:05:26.776Z,28.74
2022-08-03T11:08:34.766Z,28.86
2022-08-03T11:11:43.837Z,28.76
2022-08-03T11:14:48.105Z,28.96
2022-08-03T11:18:11.166Z,29.35
2022-08-03T11:21:12.980Z,29.32
2022-08-03T11:24:36.387Z,29.47
2022-08-03T11:27:38.849Z,29.37
2022-08-03T11:30:41.280Z,29.50
2022-08-03T11:34:02.652Z,29.29
2022-08-03T11:37:22.120Z,29.63
2022-08-03T11:40:44.518Z,29.62
2022-08-03T11:43:46.745Z,29.92
2022-08-03T11:46:48.530Z,29.47
2022-08-03T11:49:53.634Z,29.81
2022-08-03T11:52:55.149Z,30.19
2022-08-03T11:56:02.305Z,29.57
2022-08-03T11:59:20.382Z,29.49
2022-08-03T12:02:23.441Z,30.25
2022-08-03T12:05:51.054Z,30.38
2022-08-03T12:08:53.857Z,30.34
2022-08-03T12:12:00.214Z,30.63
2022-08-03T12:15:03.418Z,30.64
2022-08-03T12:18:15.471Z,31.02
2022-08-03T12:21:18.740Z,30.84
2022-08-03T12:24:20.212Z,31.00
2022-08-03T12:27:26.465Z,30.97
2022-08-03T12:30:28.361Z,30.97
2022-08-03T12:33:29.889Z,30.69
2022-08-03T12:36:34.268Z,30.77
2022-08-03T12:39:35.927Z,31.12
2022-08-03T12:42:57.481Z,31.37
2022-08-03T12:46:13.600Z,31.38
2022-08-03T12:49:17.101Z,31.46
2022-08-03T12:52:20.766Z,31.24
2022-08-03T12:55:22.980Z,31.08
2022-08-03T12:58:34.142Z,30.99
2022-08-03T13:01:37.415Z,30.77
2022-08-03T13:04:38.979Z,30.80
2022-08-03T13:07:46.074Z,31.06
2022-08-03T13:10:48.343Z,31.00
2022-08-03T13:13:51.443Z,30.79
2022-08-03T13:16:52.934Z,30.85
2022-08-03T13:19:54.713Z,30.70
2022-08-03T13:23:00.607Z,31.08
2022-08-03T13:26:02.493Z,30.94
2022-08-03T13:29:03.981Z,30.63
2022-08-03T13:32:06.185Z,30.65
2022-08-03T13:35:09.282Z,30.76
2022-08-03T13:38:10.915Z,31.24
2022-08-03T13:41:15.516Z,30.95
2022-08-03T13:44:29.341Z,30.86
2022-08-03T13:47:31.463Z,30.77
2022-08-03T13:50:33.233Z,30.55
2022-08-03T13:53:34.727Z,30.66
2022-08-03T13:56:36.206Z,31.02
2022-08-03T13:59:38.207Z,30.85
2022-08-03T14:02:39.755Z,30.77
2022-08-03T14:05:43.196Z,31.02
2022-08-03T14:08:45.213Z,30.88
2022-08-03T14:12:06.966Z,30.97
2022-08-03T14:15:10.057Z,30.97
2022-08-03T14:18:12.594Z,30.89
2022-08-03T14:21:14.622Z,30.69
2022-08-03T14:24:16.110Z,30.55
2022-08-03T14:27:17.610Z,30.85
2022-08-03T14:30:19.540Z,30.95
2022-08-03T14:33:21.219Z,30.91
2022-08-03T14:36:22.799Z,30.68
2022-08-03T14:39:24.468Z,30.82
2022-08-03T14:42:26.017Z,30.95
2022-08-03T14:45:27.565Z,30.98
2022-08-03T14:50:33.886Z,31.24
2022-08-03T14:51:51.634Z,30.92
2022-08-03T14:54:55.604Z,31.23
2022-08-03T14:57:57.047Z,31.24
2022-08-03T15:00:58.508Z,31.11
2022-08-03T15:04:00.041Z,31.43
2022-08-03T15:07:01.562Z,31.36
2022-08-03T15:10:03.327Z,31.65
2022-08-03T15:13:04.905Z,31.54
2022-08-03T15:16:06.446Z,31.82
2022-08-03T15:20:05.485Z,31.80
2022-08-03T15:22:34.622Z,31.63
2022-08-03T15:26:28.792Z,31.99
2022-08-03T15:28:58.451Z,32.16
2022-08-03T15:32:00.366Z,32.35
2022-08-03T15:35:01.923Z,32.38
2022-08-03T15:38:09.020Z,32.57
2022-08-03T15:41:13.746Z,32.69
2022-08-03T15:44:19.380Z,33.01
2022-08-03T15:47:21.156Z,33.13
2022-08-03T15:50:22.893Z,33.26
2022-08-03T15:53:24.416Z,33.09
2022-08-03T15:56:27.226Z,33.24
2022-08-03T15:59:28.944Z,33.40
2022-08-03T16:02:30.514Z,33.57
2022-08-03T16:05:32.259Z,33.54
2022-08-03T16:08:34.510Z,33.58
2022-08-03T16:11:35.990Z,33.44
2022-08-03T16:14:50.773Z,33.39
2022-08-03T16:17:53.776Z,33.50
2022-08-03T16:20:55.226Z,33.75
2022-08-03T16:23:57.403Z,33.46
2022-08-03T16:27:00.734Z,33.50
2022-08-03T16:30:03.096Z,33.06
2022-08-03T16:33:04.872Z,32.90
2022-08-03T16:36:06.586Z,32.57
2022-08-03T16:39:08.115Z,32.60
2022-08-03T16:42:09.658Z,32.98
2022-08-03T16:45:11.398Z,33.15
2022-08-03T16:48:12.910Z,33.07
2022-08-03T16:51:14.354Z,32.79
2022-08-03T16:54:15.907Z,32.95
2022-08-03T16:57:56.052Z,32.84
2022-08-03T17:00:42.947Z,32.83
2022-08-03T17:04:02.140Z,32.66
2022-08-03T17:07:06.865Z,32.11
2022-08-03T17:10:10.362Z,31.79
2022-08-03T17:13:13.066Z,31.55
2022-08-03T17:16:23.605Z,31.26
2022-08-03T17:19:26.317Z,31.02
2022-08-03T17:22:34.506Z,30.87
2022-08-03T17:26:01.797Z,30.70
2022-08-03T17:29:11.208Z,30.48
2022-08-03T17:32:21.114Z,30.36
2022-08-03T17:35:23.440Z,30.22
2022-08-03T17:38:26.060Z,30.08
2022-08-03T17:41:33.641Z,29.93
2022-08-03T17:44:46.027Z,29.65
2022-08-03T17:47:57.550Z,29.49
2022-08-03T17:51:06.537Z,29.31
2022-08-03T17:54:23.838Z,29.23
2022-08-03T17:58:02.497Z,29.28
2022-08-03T18:01:59.675Z,29.27
2022-08-03T18:04:45.067Z,29.05
2022-08-03T18:08:02.403Z,28.80
2022-08-03T18:11:14.504Z,28.61
2022-08-03T18:18:10.729Z,28.24
2022-08-03T18:21:17.068Z,28.06
2022-08-03T18:24:20.123Z,27.93
2022-08-03T18:27:45.634Z,27.82
2022-08-03T18:30:53.975Z,27.65
2022-08-03T18:34:18.285Z,27.53
2022-08-03T18:37:25.878Z,27.30
2022-08-03T18:40:30.858Z,27.11
2022-08-03T18:43:46.521Z,26.99
2022-08-03T18:46:49.196Z,26.75
2022-08-03T18:50:19.109Z,26.72
2022-08-03T18:53:23.602Z,26.55
2022-08-03T18:56:53.897Z,26.42
2022-08-03T19:00:10.541Z,26.09
2022-08-03T19:03:22.255Z,26.07
2022-08-03T19:06:27.639Z,25.92
2022-08-03T19:09:40.418Z,25.67
2022-08-03T19:12:50.654Z,25.65
2022-08-03T19:15:56.807Z,25.50
2022-08-03T19:19:00.689Z,25.25
2022-08-03T19:22:04.776Z,25.24
2022-08-03T19:25:12.090Z,25.22
2022-08-03T19:28:15.954Z,25.06
2022-08-03T19:31:20.549Z,24.78
2022-08-03T19:34:24.461Z,24.52
2022-08-03T19:37:38.723Z,24.62
2022-08-03T19:40:44.828Z,24.69
2022-08-03T19:43:58.233Z,24.41
2022-08-03T19:47:07.505Z,24.37
2022-08-03T19:50:13.846Z,24.13
2022-08-03T19:53:15.988Z,24.17
2022-08-03T19:56:23.645Z,24.11
2022-08-03T19:59:26.894Z,23.99
2022-08-03T20:02:29.858Z,24.05
2022-08-03T20:05:44.949Z,23.99
2022-08-03T20:08:53.658Z,23.96
2022-08-03T20:11:56.338Z,23.72
2022-08-03T20:14:59.230Z,23.66
2022-08-03T20:18:00.856Z,23.52
2022-08-03T20:21:06.402Z,23.50
2022-08-03T20:24:24.550Z,23.38
2022-08-03T20:27:30.043Z,23.15
2022-08-03T20:30:32.014Z,23.14
2022-08-03T20:33:46.212Z,23.26
2022-08-03T20:36:50.049Z,23.32
2022-08-03T20:39:51.660Z,23.06
2022-08-03T20:42:55.297Z,23.01
2022-08-03T20:46:00.321Z,22.86
2022-08-03T20:49:21.238Z,22.82
2022-08-03T20:52:26.171Z,22.69
2022-08-03T20:55:48.209Z,22.61
2022-08-03T20:58:50.985Z,22.72
2022-08-03T21:01:52.534Z,22.91
2022-08-03T21:04:56.504Z,22.87
2022-08-03T21:08:06.879Z,22.68
2022-08-03T21:11:18.542Z,22.54
2022-08-03T21:12:57.248Z,28.42
2022-08-03T21:14:27.719Z,22.78
2022-08-03T21:17:40.326Z,22.59
2022-08-03T21:20:43.591Z,22.66
2022-08-03T21:23:50.103Z,22.72
2022-08-03T21:26:53.877Z,22.42
2022-08-03T21:29:55.694Z,22.31
2022-08-03T21:32:58.702Z,22.14
2022-08-03T21:36:01.942Z,22.32
2022-08-03T21:39:08.337Z,22.43
2022-08-03T21:42:09.882Z,22.56
2022-08-03T21:45:17.095Z,22.51
2022-08-03T21:48:21.543Z,22.33
2022-08-03T21:51:26.095Z,22.22
2022-08-03T21:54:35.010Z,21.91
2022-08-03T21:57:39.742Z,22.05
2022-08-03T22:00:43.334Z,22.04
2022-08-03T22:03:53.058Z,22.12
2022-08-03T22:06:55.803Z,22.07
2022-08-03T22:09:59.138Z,21.46
2022-08-03T22:13:00.768Z,21.67
2022-08-03T22:16:02.566Z,21.80
2022-08-03T22:19:04.253Z,21.35
2022-08-03T22:22:09.203Z,21.19
2022-08-03T22:25:16.048Z,20.87
2022-08-03T22:28:19.004Z,20.93
2022-08-03T22:31:30.756Z,20.90
2022-08-03T22:34:45.429Z,21.13
2022-08-03T22:37:49.634Z,21.45
2022-08-03T22:40:52.533Z,21.45
2022-08-03T22:43:54.474Z,21.45
2022-08-03T22:46:56.780Z,21.56
2022-08-03T22:50:31.210Z,21.53
2022-08-03T22:53:21.795Z,21.06
2022-08-03T22:56:23.499Z,21.24
2022-08-03T22:59:40.544Z,21.30
2022-08-03T23:02:45.513Z,21.51
2022-08-03T23:06:02.232Z,21.45
2022-08-03T23:09:12.842Z,21.24
2022-08-03T23:12:20.217Z,21.41
2022-08-03T23:15:26.262Z,21.52
2022-08-03T23:18:34.117Z,21.48
2022-08-03T23:21:53.873Z,21.47
2022-08-03T23:25:03.619Z,21.10
2022-08-03T23:28:08.674Z,21.31
2022-08-03T23:31:10.845Z,21.28
2022-08-03T23:34:34.669Z,21.01
2022-08-03T23:38:03.992Z,20.79
2022-08-03T23:41:02.327Z,20.35
2022-08-03T23:44:04.495Z,20.78
2022-08-03T23:47:06.045Z,20.99
2022-08-03T23:50:07.966Z,20.91
2022-08-03T23:53:31.017Z,20.99
2022-08-03T23:57:04.638Z,21.03
